ADDS METAR Data INFO
IDs: Format: Raw Decoded Include TAF

Data at: 0459 UTC 25 May 2018

KCFD 250455Z AUTO 18006KT 10SM CLR 24/23 A3005 RMK AO2 T02440226
KCFD 250435Z AUTO 18004KT 10SM CLR 24/23 A3005 RMK AO2 T02440225
KCFD 250415Z AUTO 16004KT 10SM CLR 25/22 A3005 RMK AO2 T02480222
KCFD 250355Z AUTO 17004KT 10SM CLR 25/22 A3004 RMK AO2 T02520220
KCFD 250335Z AUTO 17006KT 10SM SCT044 BKN050 26/22 A3004 RMK AO2 T02560220
KCFD 250315Z AUTO 15005KT 10SM BKN044 BKN050 26/22 A3003 RMK AO2 T02560220
KCFD 250255Z AUTO 15005KT 10SM SCT040 SCT050 25/23 A3003 RMK AO2 T02480225
KCFD 250235Z AUTO 14005KT 10SM CLR 25/22 A3001 RMK AO2 T02500224
KCFD 250215Z AUTO 14004KT 10SM CLR 26/22 A3001 RMK AO2 T02550223
KCFD 250155Z AUTO 13006KT 10SM CLR 26/23 A3000 RMK AO2 T02610225
KCFD 250135Z AUTO 13007KT 10SM SCT055 27/22 A3000 RMK AO2 T02670221
KCFD 250115Z AUTO 12004KT 10SM SCT055 27/22 A2999 RMK AO2 T02700220
KCFD 250055Z AUTO 11005KT 10SM CLR 28/22 A2998 RMK AO2 T02770218
KCFD 250035Z AUTO 11006KT 10SM SCT050 29/22 A2998 RMK AO2 T02850219
KCFD 250015Z AUTO 11005KT 10SM CLR 29/22 A2998 RMK AO2 T02880220
KCFD 242355Z AUTO 11009KT 10SM CLR 29/22 A2999 RMK AO2 T02940215 10316 20282
KCFD 242335Z AUTO 11004KT 10SM CLR 30/20 A2999 RMK AO2 T03000202
KCFD 242315Z AUTO 13006KT 10SM SCT047 30/20 A2999 RMK AO2 T03010204
KCFD 242255Z AUTO 08004KT 10SM SCT049 SCT070 31/21 A2999 RMK AO2 T03120208
KCFD 242235Z AUTO 09006KT 10SM SCT049 32/21 A2999 RMK AO2 T03150209
KCFD 242215Z AUTO 06003KT 10SM SCT049 SCT065 SCT080 32/21 A3000 RMK AO2 T03150207
KCFD 242155Z AUTO 06003KT 10SM SCT047 SCT075 BKN100 31/21 A3000 RMK AO2 T03070213
KCFD 242135Z AUTO 00000KT 10SM SCT047 31/20 A3000 RMK AO2 T03110204
KCFD 242115Z AUTO 10003KT 10SM SCT085 SCT110 30/20 A3000 RMK AO2 T02980204
KCFD 242055Z AUTO 09003KT 10SM SCT043 SCT085 SCT110 31/21 A3002 RMK AO2 T03090208
KCFD 242035Z AUTO 00000KT 10SM SCT045 SCT055 30/21 A3003 RMK AO2 T02970209
KCFD 242015Z AUTO 00000KT 10SM SCT043 SCT048 SCT055 31/21 A3003 RMK AO2 T03060211
KCFD 241955Z AUTO 10003KT 10SM SCT043 SCT049 SCT065 31/22 A3004 RMK AO2 T03080216
KCFD 241935Z AUTO 00000KT 10SM SCT038 SCT047 BKN070 30/21 A3005 RMK AO2 T03040214
KCFD 241915Z AUTO 00000KT 10SM SCT036 BKN045 OVC070 29/21 A3005 RMK AO2 LTG DSNT SE T02900212
KCFD 241855Z AUTO 00000KT 10SM SCT034 BKN043 OVC060 29/22 A3007 RMK AO2 T02890215
KCFD 241835Z AUTO 10003KT 10SM BKN032 BKN041 OVC055 29/21 A3007 RMK AO2 T02850210
KCFD 241815Z AUTO 17003KT 10SM BKN034 BKN040 BKN070 30/22 A3008 RMK AO2 T02950217
KCFD 241755Z AUTO 15006KT 10SM BKN034 BKN044 BKN070 29/21 A3009 RMK AO2 60001 T02850214 10291 20203
KCFD 241735Z AUTO 10007KT 10SM BKN030 BKN050 29/22 A3009 RMK AO2 T02910217
KCFD 241715Z AUTO 07003KT 10SM BKN028 28/22 A3010 RMK AO2 T02800219
KCFD 241655Z AUTO 13006KT 10SM SCT024 28/22 A3010 RMK AO2 T02810216
KCFD 241635Z AUTO 14006KT 10SM SCT024 27/22 A3010 RMK AO2 T02700220
KCFD 241615Z AUTO 09003KT 10SM CLR 27/22 A3010 RMK AO2 T02720223
KCFD 241555Z AUTO 11005KT 10SM SCT017 SCT022 SCT030 27/23 A3010 RMK AO2 T02700230
KCFD 241535Z AUTO 00000KT 10SM BKN015 BKN021 BKN030 26/23 A3010 RMK AO2 T02550231
KCFD 241515Z AUTO 11004KT 10SM BKN013 OVC023 26/24 A3010 RMK AO2 T02560236
KCFD 241455Z AUTO 09004KT 10SM BKN013 BKN020 OVC026 25/24 A3010 RMK AO2 P0001 60001 T02530240
KCFD 241435Z AUTO 00000KT 10SM OVC016 24/24 A3011 RMK AO2 T02430240
KCFD 241355Z AUTO 09003KT 10SM BKN017 BKN050 24/24 A3010 RMK AO2 T02380237
KCFD 241335Z AUTO 10003KT 10SM SCT014 BKN020 BKN048 23/23 A3010 RMK AO2 T02260226
KCFD 241315Z AUTO 10005KT 10SM SCT013 22/22 A3010 RMK AO2 T02200220
KCFD 241255Z AUTO 08005KT 10SM SCT013 SCT022 22/22 A3009 RMK AO2 T02160216
KCFD 241235Z AUTO 08003KT 10SM SCT016 BKN022 21/21 A3009 RMK AO2 T02100210
KCFD 241215Z AUTO 00000KT 10SM BKN018 21/21 A3008 RMK AO2 T02080208
KCFD 241155Z AUTO 00000KT 10SM SCT013 SCT019 20/20 A3008 RMK AO2 LTG DSNT SE 70002 T02030203 10212 20201
KCFD 241135Z AUTO 00000KT 10SM BKN017 BKN025 20/20 A3007 RMK AO2 T02040204
KCFD 241115Z AUTO 07003KT 10SM SCT014 BKN021 OVC026 21/21 A3007 RMK AO2 T02050205
KCFD 241055Z AUTO 07003KT 10SM BKN014 BKN019 20/20 A3007 RMK AO2 T02020202
KCFD 241035Z AUTO 00000KT 7SM SCT016 BKN022 BKN026 21/21 A3007 RMK AO2 T02050205
KCFD 241015Z AUTO 00000KT 10SM BKN016 BKN022 21/21 A3007 RMK AO2 T02050205
KCFD 240955Z AUTO 00000KT 7SM BKN016 21/21 A3007 RMK AO2 LTG DSNT SE T02050205
KCFD 240935Z AUTO 00000KT 10SM BKN016 21/21 A3007 RMK AO2 T02070207
KCFD 240915Z AUTO 00000KT 10SM OVC016 21/21 A3007 RMK AO2 T02050205
KCFD 240855Z AUTO 00000KT 10SM BKN016 21/21 A3007 RMK AO2 T02050205
KCFD 240835Z AUTO 00000KT 10SM CLR 21/21 A3007 RMK AO2 T02050205
KCFD 240815Z AUTO 00000KT 10SM CLR 21/21 A3007 RMK AO2 T02070207
KCFD 240755Z AUTO 00000KT 10SM CLR 21/21 A3007 RMK AO2 T02050205
KCFD 240735Z AUTO 00000KT 10SM CLR 20/20 A3007 RMK AO2 T02030203
KCFD 240715Z AUTO 00000KT 10SM CLR 21/21 A3007 RMK AO2 T02120212
KCFD 240655Z AUTO 00000KT 10SM CLR 21/21 A3008 RMK AO2 T02110211
KCFD 240635Z AUTO 00000KT 10SM CLR 21/21 A3008 RMK AO2 T02080208
KCFD 240615Z AUTO 00000KT 10SM CLR 21/21 A3008 RMK AO2 T02100210
KCFD 240555Z AUTO 10003KT 10SM CLR 21/21 A3008 RMK AO2 60001 T02120212 10270 20212 403060195
KCFD 240535Z AUTO 00000KT 10SM CLR 22/22 A3008 RMK AO2 T02150215
KCFD 240515Z AUTO 00000KT 10SM CLR 22/22 A3008 RMK AO2 T02190219
KCFD 240455Z AUTO 00000KT 10SM CLR 22/22 A3007 RMK AO2 T02200220
KCFD 240435Z AUTO 00000KT 10SM CLR 22/22 A3007 RMK AO2 T02200220
KCFD 240415Z AUTO 00000KT 10SM CLR 22/22 A3007 RMK AO2 T02200220
KCFD 240355Z AUTO 00000KT 10SM CLR 22/22 A3006 RMK AO2 T02210221
KCFD 240335Z AUTO 00000KT 10SM CLR 22/22 A3005 RMK AO2 T02230223
KCFD 240315Z AUTO 00000KT 10SM CLR 23/23 A3005 RMK AO2 T02270227
KCFD 240255Z AUTO 14004KT 10SM CLR 23/23 A3003 RMK AO2 P0001 60001 T02250225
KCFD 240235Z AUTO 11004KT 10SM CLR 23/23 A3003 RMK AO2 P0001 T02300230
KCFD 240215Z AUTO 08003KT 10SM CLR 24/24 A3003 RMK AO2 P0001 T02350235
KCFD 240155Z AUTO 08004KT 10SM CLR 24/24 A3002 RMK AO2 T02400238
KCFD 240135Z AUTO 13004KT 10SM CLR 24/23 A3001 RMK AO2 T02430233
KCFD 240115Z AUTO 14005KT 10SM CLR 25/23 A3000 RMK AO2 T02500230
KCFD 240055Z AUTO 11005KT 10SM CLR 26/23 A3000 RMK AO2 T02580225
KCFD 240035Z AUTO 11005KT 10SM CLR 26/22 A3000 RMK AO2 T02630221
KCFD 240015Z AUTO 16004KT 10SM CLR 27/22 A2999 RMK AO2 T02650223
KCFD 232355Z AUTO 11005KT 10SM CLR 27/22 A2999 RMK AO2 T02680219 10306 20225
KCFD 232335Z AUTO 12005KT 10SM CLR 27/21 A2999 RMK AO2 T02660213
KCFD 232315Z AUTO 14003KT 10SM CLR 27/21 A2999 RMK AO2 T02670211
KCFD 232255Z AUTO 09004KT 10SM CLR 27/21 A3000 RMK AO2 T02660210
KCFD 232235Z AUTO 07005KT 10SM CLR 27/21 A3002 RMK AO2 T02650213
KCFD 232215Z AUTO 08007KT 10SM CLR 26/22 A3003 RMK AO2 T02600219
KCFD 232155Z AUTO 09011KT 10SM VCTS CLR 27/22 A3005 RMK AO2 LTG DSNT E T02650216
KCFD 232135Z AUTO 15010KT 10SM CLR 28/21 A3003 RMK AO2 LTG DSNT E T02750209
KCFD 232115Z AUTO 11010G14KT 10SM VCTS SCT020 SCT027 SCT040 27/22 A3003 RMK AO2 LTG DSNT NE AND E T02700215
KCFD 232055Z AUTO 11007KT 10SM SCT020 BKN027 OVC039 25/21 A3003 RMK AO2 LTG DSNT NE AND E T02450214
KCFD 232035Z AUTO 13013G20KT 5SM -VCTSRA SCT008 BKN028 OVC045 23/23 A3003 RMK AO2 LTG DSNT E THRU SW T02290225
KCFD 232015Z AUTO 14022G26KT 10SM VCTS BKN043 BKN048 OVC085 26/18 A3003 RMK AO2 LTG DSNT E THRU SW T02580184
KCFD 231955Z AUTO 11009KT 10SM SCT040 SCT048 BKN060 30/21 A3003 RMK AO2 LTG DSNT S T02960209
KCFD 231935Z AUTO 09008KT 10SM SCT042 SCT049 SCT060 31/21 A3003 RMK AO2 LTG DSNT SE AND S T03050212
KCFD 231915Z AUTO 08008KT 060V130 10SM SCT042 SCT050 30/21 A3003 RMK AO2 T03020207
KCFD 231855Z AUTO 11005KT 10SM SCT044 30/21 A3004 RMK AO2 LTG DSNT S T03000205
KCFD 231835Z AUTO 08006KT 10SM SCT041 30/21 A3005 RMK AO2 T02990207
KCFD 231815Z AUTO 06005KT 10SM SCT043 SCT049 SCT060 29/21 A3005 RMK AO2 LTG DSNT SE T02890207
KCFD 231755Z AUTO 05004KT 10SM SCT037 SCT049 SCT060 30/21 A3006 RMK AO2 LTG DSNT S 60001 T02950210 10295 20198
KCFD 231735Z AUTO 11006KT 10SM SCT037 SCT044 BKN050 29/20 A3006 RMK AO2 LTG DSNT SW T02880202
KCFD 231715Z AUTO 04003KT 10SM SCT031 SCT041 BKN050 29/21 A3006 RMK AO2 LTG DSNT SE AND S T02900211